Terminal Aerodrome Forecast
Issued by NWS

Home | Current Version | Previous Version | Text Only | Print | Product List | Glossary On
Versions: 1 2 3 4 5 6 7 8 9 10 11 12 13 14 15 16 17 18 19 20 21 22 23 24 25 26 27 28 29 30 31 32 33 34 35
000
FTUS44 KHGX 191517 AAA
TAFUTS
TAF AMD
KUTS 191517Z 1915/2012 36013KT 4SM RA BR SCT007 OVC012
      TEMPO 1915/1917 TSRA BKN007CB
     FM191700 01006KT P6SM -RA OVC007
     FM192000 01007KT P6SM SCT015 BKN020
     FM200300 36003KT P6SM BKN020 OVC050
     FM200600 36003KT 5SM BR OVC003=

USA.gov is the U.S. government's official web portal to all federal, state and local government web resources and services.